sensor_id;sensor_type;location;lat;lon;timestamp;P1;durP1;ratioP1;P2;durP2;ratioP2
78402;SDS011;67687;43.508;1.504;2023-07-20T00:01:49;9.50;;;4.90;;
78402;SDS011;67687;43.508;1.504;2023-07-20T00:04:16;9.20;;;4.47;;
78402;SDS011;67687;43.508;1.504;2023-07-20T00:06:43;8.60;;;4.97;;
78402;SDS011;67687;43.508;1.504;2023-07-20T00:09:10;10.75;;;4.70;;
78402;SDS011;67687;43.508;1.504;2023-07-20T00:11:38;10.85;;;4.95;;
78402;SDS011;67687;43.508;1.504;2023-07-20T00:14:05;10.80;;;5.10;;
78402;SDS011;67687;43.508;1.504;2023-07-20T00:16:32;11.15;;;4.90;;
78402;SDS011;67687;43.508;1.504;2023-07-20T00:18:59;7.77;;;4.20;;
78402;SDS011;67687;43.508;1.504;2023-07-20T00:21:26;9.38;;;5.18;;
78402;SDS011;67687;43.508;1.504;2023-07-20T00:23:52;9.82;;;5.03;;
78402;SDS011;67687;43.508;1.504;2023-07-20T00:26:19;11.98;;;5.20;;
78402;SDS011;67687;43.508;1.504;2023-07-20T00:28:48;11.85;;;5.38;;
78402;SDS011;67687;43.508;1.504;2023-07-20T00:31:16;11.70;;;5.00;;
78402;SDS011;67687;43.508;1.504;2023-07-20T00:33:43;8.63;;;5.00;;
78402;SDS011;67687;43.508;1.504;2023-07-20T00:36:09;12.77;;;5.00;;
78402;SDS011;67687;43.508;1.504;2023-07-20T00:38:36;9.55;;;4.80;;
78402;SDS011;67687;43.508;1.504;2023-07-20T00:41:03;10.73;;;4.85;;
78402;SDS011;67687;43.508;1.504;2023-07-20T00:43:30;9.90;;;4.93;;
78402;SDS011;67687;43.508;1.504;2023-07-20T00:45:58;12.18;;;5.20;;
78402;SDS011;67687;43.508;1.504;2023-07-20T00:48:25;10.88;;;5.07;;
78402;SDS011;67687;43.508;1.504;2023-07-20T00:50:52;9.43;;;5.00;;
78402;SDS011;67687;43.508;1.504;2023-07-20T00:53:18;10.80;;;4.82;;
78402;SDS011;67687;43.508;1.504;2023-07-20T00:55:45;9.80;;;4.67;;
78402;SDS011;67687;43.508;1.504;2023-07-20T00:58:12;10.10;;;5.53;;
78402;SDS011;67687;43.508;1.504;2023-07-20T01:00:39;10.50;;;4.50;;
78402;SDS011;67687;43.508;1.504;2023-07-20T01:03:07;9.32;;;5.07;;
78402;SDS011;67687;43.508;1.504;2023-07-20T01:05:35;9.25;;;4.88;;
78402;SDS011;67687;43.508;1.504;2023-07-20T01:08:07;9.13;;;4.70;;
78402;SDS011;67687;43.508;1.504;2023-07-20T01:10:39;8.38;;;4.75;;
78402;SDS011;67687;43.508;1.504;2023-07-20T01:13:07;9.55;;;4.97;;
78402;SDS011;67687;43.508;1.504;2023-07-20T01:15:36;9.20;;;5.25;;
78402;SDS011;67687;43.508;1.504;2023-07-20T01:18:03;11.82;;;5.05;;
78402;SDS011;67687;43.508;1.504;2023-07-20T01:20:32;10.70;;;5.07;;
78402;SDS011;67687;43.508;1.504;2023-07-20T01:26:02;8.02;;;5.07;;
78402;SDS011;67687;43.508;1.504;2023-07-20T01:28:57;9.00;;;4.80;;
78402;SDS011;67687;43.508;1.504;2023-07-20T01:31:39;8.43;;;4.50;;
78402;SDS011;67687;43.508;1.504;2023-07-20T01:34:07;9.80;;;4.77;;
78402;SDS011;67687;43.508;1.504;2023-07-20T01:36:35;10.45;;;4.93;;
78402;SDS011;67687;43.508;1.504;2023-07-20T01:39:02;10.65;;;4.95;;
78402;SDS011;67687;43.508;1.504;2023-07-20T01:41:29;9.40;;;5.13;;
78402;SDS011;67687;43.508;1.504;2023-07-20T01:43:57;11.15;;;5.22;;
78402;SDS011;67687;43.508;1.504;2023-07-20T01:46:24;11.07;;;5.10;;
78402;SDS011;67687;43.508;1.504;2023-07-20T01:48:52;11.48;;;4.53;;
78402;SDS011;67687;43.508;1.504;2023-07-20T01:51:19;9.38;;;4.60;;
78402;SDS011;67687;43.508;1.504;2023-07-20T01:53:46;9.52;;;4.35;;
78402;SDS011;67687;43.508;1.504;2023-07-20T01:56:13;10.20;;;5.47;;
78402;SDS011;67687;43.508;1.504;2023-07-20T01:58:40;9.23;;;5.13;;
78402;SDS011;67687;43.508;1.504;2023-07-20T02:01:07;10.43;;;5.50;;
78402;SDS011;67687;43.508;1.504;2023-07-20T02:03:33;9.88;;;4.72;;
78402;SDS011;67687;43.508;1.504;2023-07-20T02:06:02;11.38;;;4.82;;
78402;SDS011;67687;43.508;1.504;2023-07-20T02:08:28;8.75;;;5.10;;
78402;SDS011;67687;43.508;1.504;2023-07-20T02:10:55;13.63;;;5.00;;
78402;SDS011;67687;43.508;1.504;2023-07-20T02:13:22;9.93;;;5.20;;
78402;SDS011;67687;43.508;1.504;2023-07-20T02:15:49;10.02;;;5.03;;
78402;SDS011;67687;43.508;1.504;2023-07-20T02:18:16;10.35;;;4.93;;
78402;SDS011;67687;43.508;1.504;2023-07-20T02:20:43;11.20;;;5.03;;
78402;SDS011;67687;43.508;1.504;2023-07-20T02:23:11;9.93;;;4.97;;
78402;SDS011;67687;43.508;1.504;2023-07-20T02:25:38;9.32;;;4.80;;
78402;SDS011;67687;43.508;1.504;2023-07-20T02:28:07;13.00;;;4.95;;
78402;SDS011;67687;43.508;1.504;2023-07-20T02:30:36;12.35;;;4.75;;
78402;SDS011;67687;43.508;1.504;2023-07-20T02:33:04;10.50;;;5.13;;
78402;SDS011;67687;43.508;1.504;2023-07-20T02:35:31;11.17;;;5.30;;
78402;SDS011;67687;43.508;1.504;2023-07-20T02:37:58;9.38;;;5.15;;
78402;SDS011;67687;43.508;1.504;2023-07-20T02:40:26;11.07;;;5.30;;
78402;SDS011;67687;43.508;1.504;2023-07-20T02:42:53;9.63;;;5.18;;
78402;SDS011;67687;43.508;1.504;2023-07-20T02:45:20;10.60;;;5.00;;
78402;SDS011;67687;43.508;1.504;2023-07-20T02:47:47;10.40;;;5.33;;
78402;SDS011;67687;43.508;1.504;2023-07-20T02:50:14;10.68;;;5.32;;
78402;SDS011;67687;43.508;1.504;2023-07-20T02:52:40;10.43;;;5.35;;
78402;SDS011;67687;43.508;1.504;2023-07-20T02:55:08;9.55;;;5.40;;
78402;SDS011;67687;43.508;1.504;2023-07-20T02:57:36;12.45;;;5.70;;
78402;SDS011;67687;43.508;1.504;2023-07-20T03:00:03;10.27;;;5.13;;
78402;SDS011;67687;43.508;1.504;2023-07-20T03:02:31;10.30;;;5.35;;
78402;SDS011;67687;43.508;1.504;2023-07-20T03:04:58;11.23;;;5.10;;
78402;SDS011;67687;43.508;1.504;2023-07-20T03:07:26;10.48;;;5.18;;
78402;SDS011;67687;43.508;1.504;2023-07-20T03:09:53;11.38;;;5.68;;
78402;SDS011;67687;43.508;1.504;2023-07-20T03:12:20;10.67;;;5.33;;
78402;SDS011;67687;43.508;1.504;2023-07-20T03:14:48;11.80;;;5.07;;
78402;SDS011;67687;43.508;1.504;2023-07-20T03:17:15;10.85;;;5.38;;
78402;SDS011;67687;43.508;1.504;2023-07-20T03:19:42;9.15;;;5.40;;
78402;SDS011;67687;43.508;1.504;2023-07-20T03:22:08;9.98;;;5.40;;
78402;SDS011;67687;43.508;1.504;2023-07-20T03:24:35;8.87;;;5.17;;
78402;SDS011;67687;43.508;1.504;2023-07-20T03:27:02;12.65;;;5.90;;
78402;SDS011;67687;43.508;1.504;2023-07-20T03:29:30;11.75;;;5.43;;
78402;SDS011;67687;43.508;1.504;2023-07-20T03:31:59;9.93;;;5.38;;
78402;SDS011;67687;43.508;1.504;2023-07-20T03:34:26;13.02;;;5.25;;
78402;SDS011;67687;43.508;1.504;2023-07-20T03:36:52;10.10;;;5.23;;
78402;SDS011;67687;43.508;1.504;2023-07-20T03:39:19;10.50;;;5.63;;
78402;SDS011;67687;43.508;1.504;2023-07-20T03:41:46;8.88;;;5.25;;
78402;SDS011;67687;43.508;1.504;2023-07-20T03:44:13;8.95;;;5.53;;
78402;SDS011;67687;43.508;1.504;2023-07-20T03:46:39;9.23;;;5.43;;
78402;SDS011;67687;43.508;1.504;2023-07-20T03:49:07;9.80;;;5.13;;
78402;SDS011;67687;43.508;1.504;2023-07-20T03:51:35;10.15;;;5.65;;
78402;SDS011;67687;43.508;1.504;2023-07-20T03:54:02;9.82;;;5.18;;
78402;SDS011;67687;43.508;1.504;2023-07-20T03:56:28;11.52;;;5.60;;
78402;SDS011;67687;43.508;1.504;2023-07-20T03:58:59;10.27;;;5.30;;
78402;SDS011;67687;43.508;1.504;2023-07-20T04:01:26;8.60;;;5.27;;
78402;SDS011;67687;43.508;1.504;2023-07-20T04:03:52;8.95;;;5.53;;
78402;SDS011;67687;43.508;1.504;2023-07-20T04:06:20;8.63;;;5.55;;
78402;SDS011;67687;43.508;1.504;2023-07-20T04:08:47;11.48;;;5.78;;
78402;SDS011;67687;43.508;1.504;2023-07-20T04:11:14;9.93;;;5.50;;
78402;SDS011;67687;43.508;1.504;2023-07-20T04:13:40;10.63;;;4.90;;
78402;SDS011;67687;43.508;1.504;2023-07-20T04:16:07;9.80;;;5.28;;
78402;SDS011;67687;43.508;1.504;2023-07-20T04:18:34;9.40;;;5.00;;
78402;SDS011;67687;43.508;1.504;2023-07-20T04:21:00;9.27;;;5.00;;
78402;SDS011;67687;43.508;1.504;2023-07-20T04:23:29;10.65;;;4.97;;
78402;SDS011;67687;43.508;1.504;2023-07-20T04:25:55;9.70;;;5.70;;
78402;SDS011;67687;43.508;1.504;2023-07-20T04:28:22;10.85;;;5.05;;
78402;SDS011;67687;43.508;1.504;2023-07-20T04:30:49;10.57;;;5.05;;
78402;SDS011;67687;43.508;1.504;2023-07-20T04:33:16;9.18;;;5.40;;
78402;SDS011;67687;43.508;1.504;2023-07-20T04:35:47;11.63;;;5.07;;
78402;SDS011;67687;43.508;1.504;2023-07-20T04:38:15;12.40;;;6.03;;
78402;SDS011;67687;43.508;1.504;2023-07-20T04:40:44;10.57;;;5.90;;
78402;SDS011;67687;43.508;1.504;2023-07-20T04:43:11;8.52;;;5.60;;
78402;SDS011;67687;43.508;1.504;2023-07-20T04:45:38;9.32;;;5.10;;
78402;SDS011;67687;43.508;1.504;2023-07-20T04:48:06;10.48;;;4.90;;
78402;SDS011;67687;43.508;1.504;2023-07-20T04:50:35;10.03;;;4.93;;
78402;SDS011;67687;43.508;1.504;2023-07-20T04:53:02;9.63;;;4.88;;
78402;SDS011;67687;43.508;1.504;2023-07-20T04:55:28;9.32;;;5.57;;
78402;SDS011;67687;43.508;1.504;2023-07-20T04:57:56;11.50;;;5.18;;
78402;SDS011;67687;43.508;1.504;2023-07-20T05:00:23;10.60;;;5.40;;
78402;SDS011;67687;43.508;1.504;2023-07-20T05:02:50;11.70;;;5.27;;
78402;SDS011;67687;43.508;1.504;2023-07-20T05:05:17;9.20;;;5.57;;
78402;SDS011;67687;43.508;1.504;2023-07-20T05:07:43;11.07;;;5.68;;
78402;SDS011;67687;43.508;1.504;2023-07-20T05:10:11;9.95;;;6.88;;
78402;SDS011;67687;43.508;1.504;2023-07-20T05:12:37;11.38;;;7.20;;
78402;SDS011;67687;43.508;1.504;2023-07-20T05:15:06;8.67;;;6.20;;
78402;SDS011;67687;43.508;1.504;2023-07-20T05:17:33;9.27;;;5.95;;
78402;SDS011;67687;43.508;1.504;2023-07-20T05:20:00;9.25;;;6.93;;
78402;SDS011;67687;43.508;1.504;2023-07-20T05:22:27;8.55;;;6.38;;
78402;SDS011;67687;43.508;1.504;2023-07-20T05:24:54;8.60;;;6.50;;
78402;SDS011;67687;43.508;1.504;2023-07-20T05:27:21;8.07;;;6.17;;
78402;SDS011;67687;43.508;1.504;2023-07-20T05:29:47;8.93;;;6.35;;
78402;SDS011;67687;43.508;1.504;2023-07-20T05:32:16;10.18;;;7.22;;
78402;SDS011;67687;43.508;1.504;2023-07-20T05:34:42;10.35;;;6.60;;
78402;SDS011;67687;43.508;1.504;2023-07-20T05:37:09;7.97;;;6.35;;
78402;SDS011;67687;43.508;1.504;2023-07-20T05:39:36;9.57;;;7.07;;
78402;SDS011;67687;43.508;1.504;2023-07-20T05:42:02;11.90;;;8.30;;
78402;SDS011;67687;43.508;1.504;2023-07-20T05:44:29;10.57;;;7.53;;
78402;SDS011;67687;43.508;1.504;2023-07-20T05:46:56;9.35;;;7.00;;
78402;SDS011;67687;43.508;1.504;2023-07-20T05:49:24;10.48;;;9.38;;
78402;SDS011;67687;43.508;1.504;2023-07-20T05:51:51;10.20;;;9.03;;
78402;SDS011;67687;43.508;1.504;2023-07-20T05:54:18;10.40;;;9.30;;
78402;SDS011;67687;43.508;1.504;2023-07-20T05:56:45;10.45;;;9.35;;
78402;SDS011;67687;43.508;1.504;2023-07-20T05:59:12;11.27;;;10.10;;
78402;SDS011;67687;43.508;1.504;2023-07-20T06:01:39;9.50;;;8.50;;
78402;SDS011;67687;43.508;1.504;2023-07-20T06:04:05;9.37;;;8.37;;
78402;SDS011;67687;43.508;1.504;2023-07-20T06:06:34;12.52;;;9.18;;
78402;SDS011;67687;43.508;1.504;2023-07-20T06:09:00;9.55;;;8.63;;
78402;SDS011;67687;43.508;1.504;2023-07-20T06:11:29;9.27;;;8.15;;
78402;SDS011;67687;43.508;1.504;2023-07-20T06:13:55;8.73;;;7.82;;
78402;SDS011;67687;43.508;1.504;2023-07-20T06:16:22;7.37;;;6.53;;
78402;SDS011;67687;43.508;1.504;2023-07-20T06:18:49;7.20;;;6.43;;
78402;SDS011;67687;43.508;1.504;2023-07-20T06:21:15;6.72;;;6.05;;
78402;SDS011;67687;43.508;1.504;2023-07-20T06:23:44;8.07;;;5.72;;
78402;SDS011;67687;43.508;1.504;2023-07-20T06:26:11;6.82;;;5.45;;
78402;SDS011;67687;43.508;1.504;2023-07-20T06:28:37;6.20;;;3.80;;
78402;SDS011;67687;43.508;1.504;2023-07-20T06:31:04;6.38;;;3.80;;
78402;SDS011;67687;43.508;1.504;2023-07-20T06:33:31;6.82;;;3.83;;
78402;SDS011;67687;43.508;1.504;2023-07-20T06:35:58;6.20;;;3.83;;
78402;SDS011;67687;43.508;1.504;2023-07-20T06:38:24;6.72;;;4.18;;
78402;SDS011;67687;43.508;1.504;2023-07-20T06:40:53;6.47;;;3.50;;
78402;SDS011;67687;43.508;1.504;2023-07-20T06:43:20;5.93;;;3.90;;
78402;SDS011;67687;43.508;1.504;2023-07-20T06:45:50;9.93;;;4.07;;
78402;SDS011;67687;43.508;1.504;2023-07-20T06:48:17;6.45;;;3.60;;
78402;SDS011;67687;43.508;1.504;2023-07-20T06:50:44;7.60;;;4.35;;
78402;SDS011;67687;43.508;1.504;2023-07-20T06:53:11;8.00;;;4.10;;
78402;SDS011;67687;43.508;1.504;2023-07-20T06:55:38;7.82;;;3.92;;
78402;SDS011;67687;43.508;1.504;2023-07-20T06:58:06;8.23;;;3.97;;
78402;SDS011;67687;43.508;1.504;2023-07-20T07:00:32;11.13;;;4.72;;
78402;SDS011;67687;43.508;1.504;2023-07-20T07:02:59;6.57;;;4.38;;
78402;SDS011;67687;43.508;1.504;2023-07-20T07:05:26;9.33;;;4.20;;
78402;SDS011;67687;43.508;1.504;2023-07-20T07:07:52;8.50;;;3.90;;
78402;SDS011;67687;43.508;1.504;2023-07-20T07:10:19;6.63;;;4.05;;
78402;SDS011;67687;43.508;1.504;2023-07-20T07:12:46;6.57;;;3.83;;
78402;SDS011;67687;43.508;1.504;2023-07-20T07:15:14;7.57;;;3.85;;
78402;SDS011;67687;43.508;1.504;2023-07-20T07:17:41;7.77;;;3.70;;
78402;SDS011;67687;43.508;1.504;2023-07-20T07:20:08;7.90;;;3.90;;
78402;SDS011;67687;43.508;1.504;2023-07-20T07:22:35;9.60;;;4.35;;
78402;SDS011;67687;43.508;1.504;2023-07-20T07:25:02;7.78;;;3.60;;
78402;SDS011;67687;43.508;1.504;2023-07-20T07:27:29;6.40;;;3.53;;
78402;SDS011;67687;43.508;1.504;2023-07-20T07:29:56;5.50;;;3.40;;
78402;SDS011;67687;43.508;1.504;2023-07-20T07:32:24;9.15;;;3.60;;
78402;SDS011;67687;43.508;1.504;2023-07-20T07:34:51;6.65;;;3.47;;
78402;SDS011;67687;43.508;1.504;2023-07-20T07:37:17;9.70;;;3.78;;
78402;SDS011;67687;43.508;1.504;2023-07-20T07:39:45;6.70;;;3.53;;
78402;SDS011;67687;43.508;1.504;2023-07-20T07:42:12;6.33;;;3.90;;
78402;SDS011;67687;43.508;1.504;2023-07-20T07:44:38;8.55;;;3.67;;
78402;SDS011;67687;43.508;1.504;2023-07-20T07:47:05;5.90;;;3.22;;
78402;SDS011;67687;43.508;1.504;2023-07-20T07:49:34;12.65;;;3.63;;
78402;SDS011;67687;43.508;1.504;2023-07-20T07:52:00;8.40;;;3.40;;
78402;SDS011;67687;43.508;1.504;2023-07-20T07:54:28;7.40;;;3.37;;
78402;SDS011;67687;43.508;1.504;2023-07-20T07:56:55;8.77;;;3.63;;
78402;SDS011;67687;43.508;1.504;2023-07-20T07:59:21;7.57;;;3.28;;
78402;SDS011;67687;43.508;1.504;2023-07-20T08:01:48;5.72;;;3.00;;
78402;SDS011;67687;43.508;1.504;2023-07-20T08:04:15;6.10;;;3.25;;
78402;SDS011;67687;43.508;1.504;2023-07-20T08:06:44;6.23;;;2.77;;
78402;SDS011;67687;43.508;1.504;2023-07-20T08:09:11;8.25;;;3.10;;
78402;SDS011;67687;43.508;1.504;2023-07-20T08:11:38;5.15;;;2.70;;
78402;SDS011;67687;43.508;1.504;2023-07-20T08:14:05;7.05;;;3.10;;
78402;SDS011;67687;43.508;1.504;2023-07-20T08:16:32;6.07;;;3.05;;
78402;SDS011;67687;43.508;1.504;2023-07-20T08:18:59;5.17;;;2.97;;
78402;SDS011;67687;43.508;1.504;2023-07-20T08:21:27;6.00;;;2.88;;
78402;SDS011;67687;43.508;1.504;2023-07-20T08:23:55;5.10;;;2.30;;
78402;SDS011;67687;43.508;1.504;2023-07-20T08:26:22;6.53;;;3.15;;
78402;SDS011;67687;43.508;1.504;2023-07-20T08:28:49;8.00;;;3.17;;
78402;SDS011;67687;43.508;1.504;2023-07-20T08:31:16;7.73;;;3.17;;
78402;SDS011;67687;43.508;1.504;2023-07-20T08:33:43;7.47;;;3.20;;
78402;SDS011;67687;43.508;1.504;2023-07-20T08:36:10;6.45;;;2.97;;
78402;SDS011;67687;43.508;1.504;2023-07-20T08:38:36;6.32;;;2.92;;
78402;SDS011;67687;43.508;1.504;2023-07-20T08:41:04;6.78;;;2.80;;
78402;SDS011;67687;43.508;1.504;2023-07-20T08:43:31;4.63;;;2.57;;
78402;SDS011;67687;43.508;1.504;2023-07-20T08:45:59;5.03;;;2.50;;
78402;SDS011;67687;43.508;1.504;2023-07-20T08:48:27;6.68;;;2.95;;
78402;SDS011;67687;43.508;1.504;2023-07-20T08:50:54;7.07;;;2.92;;
78402;SDS011;67687;43.508;1.504;2023-07-20T08:53:22;6.32;;;2.67;;
78402;SDS011;67687;43.508;1.504;2023-07-20T08:55:50;6.90;;;2.63;;
78402;SDS011;67687;43.508;1.504;2023-07-20T08:58:18;6.35;;;2.42;;
78402;SDS011;67687;43.508;1.504;2023-07-20T09:00:45;6.55;;;2.63;;
78402;SDS011;67687;43.508;1.504;2023-07-20T09:03:16;6.32;;;2.70;;
78402;SDS011;67687;43.508;1.504;2023-07-20T09:05:43;6.57;;;2.90;;
78402;SDS011;67687;43.508;1.504;2023-07-20T09:08:10;4.70;;;2.80;;
78402;SDS011;67687;43.508;1.504;2023-07-20T09:10:37;7.25;;;2.88;;
78402;SDS011;67687;43.508;1.504;2023-07-20T09:13:04;5.95;;;2.60;;
78402;SDS011;67687;43.508;1.504;2023-07-20T09:15:32;5.95;;;2.50;;
78402;SDS011;67687;43.508;1.504;2023-07-20T09:18:00;5.95;;;2.60;;
78402;SDS011;67687;43.508;1.504;2023-07-20T09:20:30;7.27;;;2.77;;
78402;SDS011;67687;43.508;1.504;2023-07-20T09:22:58;4.97;;;2.58;;
78402;SDS011;67687;43.508;1.504;2023-07-20T09:25:25;4.18;;;2.45;;
78402;SDS011;67687;43.508;1.504;2023-07-20T09:27:53;5.13;;;2.45;;
78402;SDS011;67687;43.508;1.504;2023-07-20T09:30:21;6.90;;;2.60;;
78402;SDS011;67687;43.508;1.504;2023-07-20T09:32:52;6.20;;;2.53;;
78402;SDS011;67687;43.508;1.504;2023-07-20T09:35:19;5.82;;;2.20;;
78402;SDS011;67687;43.508;1.504;2023-07-20T09:37:50;3.70;;;2.25;;
78402;SDS011;67687;43.508;1.504;2023-07-20T09:40:18;5.03;;;2.10;;
78402;SDS011;67687;43.508;1.504;2023-07-20T09:42:46;4.75;;;2.20;;
78402;SDS011;67687;43.508;1.504;2023-07-20T09:45:13;4.30;;;2.27;;
78402;SDS011;67687;43.508;1.504;2023-07-20T09:47:40;5.57;;;2.40;;
78402;SDS011;67687;43.508;1.504;2023-07-20T09:50:08;5.43;;;2.50;;
78402;SDS011;67687;43.508;1.504;2023-07-20T09:52:40;5.75;;;2.10;;
78402;SDS011;67687;43.508;1.504;2023-07-20T09:55:09;4.70;;;2.20;;
78402;SDS011;67687;43.508;1.504;2023-07-20T09:57:37;5.40;;;2.37;;
78402;SDS011;67687;43.508;1.504;2023-07-20T10:00:04;5.03;;;2.22;;
78402;SDS011;67687;43.508;1.504;2023-07-20T10:02:41;5.25;;;2.15;;
78402;SDS011;67687;43.508;1.504;2023-07-20T10:05:11;5.05;;;2.20;;
78402;SDS011;67687;43.508;1.504;2023-07-20T10:07:43;4.18;;;2.60;;
78402;SDS011;67687;43.508;1.504;2023-07-20T10:10:11;6.03;;;2.30;;
78402;SDS011;67687;43.508;1.504;2023-07-20T10:12:40;5.97;;;2.65;;
78402;SDS011;67687;43.508;1.504;2023-07-20T10:15:10;4.85;;;2.65;;
78402;SDS011;67687;43.508;1.504;2023-07-20T10:17:40;6.30;;;2.72;;
78402;SDS011;67687;43.508;1.504;2023-07-20T10:20:16;4.88;;;2.65;;
78402;SDS011;67687;43.508;1.504;2023-07-20T10:22:43;6.73;;;2.57;;
78402;SDS011;67687;43.508;1.504;2023-07-20T10:25:11;4.25;;;2.50;;
78402;SDS011;67687;43.508;1.504;2023-07-20T10:27:39;6.38;;;2.85;;
78402;SDS011;67687;43.508;1.504;2023-07-20T10:30:06;5.35;;;2.60;;
78402;SDS011;67687;43.508;1.504;2023-07-20T10:32:33;5.15;;;2.78;;
78402;SDS011;67687;43.508;1.504;2023-07-20T10:35:00;5.43;;;2.67;;
78402;SDS011;67687;43.508;1.504;2023-07-20T10:37:47;5.18;;;2.70;;
78402;SDS011;67687;43.508;1.504;2023-07-20T10:40:28;5.00;;;2.58;;
78402;SDS011;67687;43.508;1.504;2023-07-20T10:42:58;4.60;;;2.47;;
78402;SDS011;67687;43.508;1.504;2023-07-20T10:45:35;6.28;;;2.75;;
78402;SDS011;67687;43.508;1.504;2023-07-20T10:48:03;5.93;;;2.80;;
78402;SDS011;67687;43.508;1.504;2023-07-20T10:50:32;5.55;;;2.42;;
78402;SDS011;67687;43.508;1.504;2023-07-20T10:53:11;8.45;;;2.80;;
78402;SDS011;67687;43.508;1.504;2023-07-20T10:55:38;5.10;;;2.30;;
78402;SDS011;67687;43.508;1.504;2023-07-20T10:58:09;6.13;;;2.60;;
78402;SDS011;67687;43.508;1.504;2023-07-20T11:00:37;4.67;;;2.77;;
78402;SDS011;67687;43.508;1.504;2023-07-20T11:03:04;4.43;;;2.40;;
78402;SDS011;67687;43.508;1.504;2023-07-20T11:05:32;6.40;;;2.78;;
78402;SDS011;67687;43.508;1.504;2023-07-20T11:08:03;5.50;;;2.80;;
78402;SDS011;67687;43.508;1.504;2023-07-20T11:10:31;6.60;;;2.40;;
78402;SDS011;67687;43.508;1.504;2023-07-20T11:13:17;5.57;;;2.63;;
78402;SDS011;67687;43.508;1.504;2023-07-20T11:15:48;6.32;;;2.67;;
78402;SDS011;67687;43.508;1.504;2023-07-20T11:18:27;5.72;;;2.72;;
78402;SDS011;67687;43.508;1.504;2023-07-20T11:20:54;6.03;;;3.15;;
78402;SDS011;67687;43.508;1.504;2023-07-20T11:23:21;6.60;;;2.83;;
78402;SDS011;67687;43.508;1.504;2023-07-20T11:25:49;4.80;;;2.33;;
78402;SDS011;67687;43.508;1.504;2023-07-20T11:28:16;6.03;;;2.95;;
78402;SDS011;67687;43.508;1.504;2023-07-20T11:30:43;5.13;;;2.95;;
78402;SDS011;67687;43.508;1.504;2023-07-20T11:33:10;7.78;;;2.92;;
78402;SDS011;67687;43.508;1.504;2023-07-20T11:35:41;6.35;;;2.65;;
78402;SDS011;67687;43.508;1.504;2023-07-20T11:38:08;5.07;;;2.60;;
78402;SDS011;67687;43.508;1.504;2023-07-20T11:40:35;8.48;;;2.80;;
78402;SDS011;67687;43.508;1.504;2023-07-20T11:43:03;4.45;;;2.50;;
78402;SDS011;67687;43.508;1.504;2023-07-20T11:45:30;6.40;;;2.92;;
78402;SDS011;67687;43.508;1.504;2023-07-20T11:47:58;5.82;;;2.90;;
78402;SDS011;67687;43.508;1.504;2023-07-20T11:50:25;6.87;;;2.90;;
78402;SDS011;67687;43.508;1.504;2023-07-20T11:52:51;4.55;;;2.47;;
78402;SDS011;67687;43.508;1.504;2023-07-20T11:55:19;5.53;;;2.60;;
78402;SDS011;67687;43.508;1.504;2023-07-20T11:58:00;6.35;;;2.78;;
78402;SDS011;67687;43.508;1.504;2023-07-20T12:00:28;6.03;;;2.50;;
78402;SDS011;67687;43.508;1.504;2023-07-20T12:02:55;7.00;;;2.67;;
78402;SDS011;67687;43.508;1.504;2023-07-20T12:05:22;6.10;;;2.65;;
78402;SDS011;67687;43.508;1.504;2023-07-20T12:07:49;7.47;;;2.67;;
78402;SDS011;67687;43.508;1.504;2023-07-20T12:10:22;4.78;;;2.70;;
78402;SDS011;67687;43.508;1.504;2023-07-20T12:12:50;5.50;;;2.80;;
78402;SDS011;67687;43.508;1.504;2023-07-20T12:15:19;4.87;;;2.43;;
78402;SDS011;67687;43.508;1.504;2023-07-20T12:17:48;5.15;;;2.97;;
78402;SDS011;67687;43.508;1.504;2023-07-20T12:20:24;7.25;;;2.58;;
78402;SDS011;67687;43.508;1.504;2023-07-20T12:22:52;6.20;;;2.95;;
78402;SDS011;67687;43.508;1.504;2023-07-20T12:25:19;4.85;;;2.50;;
78402;SDS011;67687;43.508;1.504;2023-07-20T12:27:47;5.33;;;2.60;;
78402;SDS011;67687;43.508;1.504;2023-07-20T12:30:14;6.07;;;3.00;;
78402;SDS011;67687;43.508;1.504;2023-07-20T12:32:42;5.47;;;2.50;;
78402;SDS011;67687;43.508;1.504;2023-07-20T12:35:09;5.78;;;2.70;;
78402;SDS011;67687;43.508;1.504;2023-07-20T12:37:36;7.18;;;2.72;;
78402;SDS011;67687;43.508;1.504;2023-07-20T12:40:03;5.40;;;2.70;;
78402;SDS011;67687;43.508;1.504;2023-07-20T12:42:36;8.32;;;2.72;;
78402;SDS011;67687;43.508;1.504;2023-07-20T12:45:04;4.93;;;2.85;;
78402;SDS011;67687;43.508;1.504;2023-07-20T12:47:31;6.55;;;2.50;;
78402;SDS011;67687;43.508;1.504;2023-07-20T12:49:59;7.43;;;2.83;;
78402;SDS011;67687;43.508;1.504;2023-07-20T12:52:26;5.20;;;2.40;;
78402;SDS011;67687;43.508;1.504;2023-07-20T12:54:53;5.55;;;2.67;;
78402;SDS011;67687;43.508;1.504;2023-07-20T12:57:19;5.28;;;2.40;;
78402;SDS011;67687;43.508;1.504;2023-07-20T12:59:46;4.88;;;2.53;;
78402;SDS011;67687;43.508;1.504;2023-07-20T13:02:13;4.90;;;3.00;;
78402;SDS011;67687;43.508;1.504;2023-07-20T13:04:40;5.77;;;3.07;;
78402;SDS011;67687;43.508;1.504;2023-07-20T13:07:09;5.13;;;2.72;;
78402;SDS011;67687;43.508;1.504;2023-07-20T13:09:37;5.95;;;2.97;;
78402;SDS011;67687;43.508;1.504;2023-07-20T13:12:04;7.38;;;2.88;;
78402;SDS011;67687;43.508;1.504;2023-07-20T13:14:31;5.57;;;2.80;;
78402;SDS011;67687;43.508;1.504;2023-07-20T13:16:58;6.00;;;3.17;;
78402;SDS011;67687;43.508;1.504;2023-07-20T13:19:25;6.07;;;2.83;;
78402;SDS011;67687;43.508;1.504;2023-07-20T13:21:52;5.82;;;2.90;;
78402;SDS011;67687;43.508;1.504;2023-07-20T13:24:20;4.32;;;2.13;;
78402;SDS011;67687;43.508;1.504;2023-07-20T13:26:47;5.90;;;2.50;;
78402;SDS011;67687;43.508;1.504;2023-07-20T13:29:14;4.10;;;2.33;;
78402;SDS011;67687;43.508;1.504;2023-07-20T13:31:41;4.32;;;2.55;;
78402;SDS011;67687;43.508;1.504;2023-07-20T13:34:07;4.38;;;2.40;;
78402;SDS011;67687;43.508;1.504;2023-07-20T13:36:34;4.90;;;2.58;;
78402;SDS011;67687;43.508;1.504;2023-07-20T13:39:01;7.40;;;3.00;;
78402;SDS011;67687;43.508;1.504;2023-07-20T13:41:31;6.00;;;3.10;;
78402;SDS011;67687;43.508;1.504;2023-07-20T13:43:58;5.72;;;2.80;;
78402;SDS011;67687;43.508;1.504;2023-07-20T13:46:25;6.18;;;2.90;;
78402;SDS011;67687;43.508;1.504;2023-07-20T13:48:51;4.93;;;2.65;;
78402;SDS011;67687;43.508;1.504;2023-07-20T13:51:18;6.75;;;3.20;;
78402;SDS011;67687;43.508;1.504;2023-07-20T13:53:45;5.00;;;2.60;;
78402;SDS011;67687;43.508;1.504;2023-07-20T13:56:12;4.55;;;2.50;;
78402;SDS011;67687;43.508;1.504;2023-07-20T13:58:40;5.13;;;2.58;;
78402;SDS011;67687;43.508;1.504;2023-07-20T14:01:07;6.50;;;3.00;;
78402;SDS011;67687;43.508;1.504;2023-07-20T14:03:34;6.20;;;2.55;;
78402;SDS011;67687;43.508;1.504;2023-07-20T14:06:01;9.70;;;5.27;;
78402;SDS011;67687;43.508;1.504;2023-07-20T14:08:27;4.68;;;2.50;;
78402;SDS011;67687;43.508;1.504;2023-07-20T14:10:55;5.88;;;2.90;;
78402;SDS011;67687;43.508;1.504;2023-07-20T14:13:21;4.93;;;2.50;;
78402;SDS011;67687;43.508;1.504;2023-07-20T14:15:50;5.50;;;2.70;;
78402;SDS011;67687;43.508;1.504;2023-07-20T14:18:16;6.73;;;2.60;;
78402;SDS011;67687;43.508;1.504;2023-07-20T14:20:43;5.80;;;2.72;;
78402;SDS011;67687;43.508;1.504;2023-07-20T14:23:10;5.25;;;3.17;;
78402;SDS011;67687;43.508;1.504;2023-07-20T14:25:36;6.38;;;2.80;;
78402;SDS011;67687;43.508;1.504;2023-07-20T14:28:03;4.40;;;2.63;;
78402;SDS011;67687;43.508;1.504;2023-07-20T14:30:30;9.80;;;4.07;;
78402;SDS011;67687;43.508;1.504;2023-07-20T14:32:58;5.10;;;2.95;;
78402;SDS011;67687;43.508;1.504;2023-07-20T14:35:25;5.03;;;2.55;;
78402;SDS011;67687;43.508;1.504;2023-07-20T14:37:52;4.05;;;2.50;;
78402;SDS011;67687;43.508;1.504;2023-07-20T14:40:19;6.25;;;2.53;;
78402;SDS011;67687;43.508;1.504;2023-07-20T14:42:46;4.83;;;2.40;;
78402;SDS011;67687;43.508;1.504;2023-07-20T14:45:12;9.65;;;5.70;;
78402;SDS011;67687;43.508;1.504;2023-07-20T14:47:39;5.40;;;3.28;;
78402;SDS011;67687;43.508;1.504;2023-07-20T14:50:09;5.20;;;2.63;;
78402;SDS011;67687;43.508;1.504;2023-07-20T14:52:36;7.30;;;3.67;;